createdAt,value
2023-04-13T00:00:46.706Z,5.30
2023-04-13T00:03:17.430Z,5.30
2023-04-13T00:05:46.290Z,5.30
2023-04-13T00:08:13.362Z,5.30
2023-04-13T00:10:43.006Z,5.20
2023-04-13T00:13:10.910Z,5.20
2023-04-13T00:15:41.851Z,5.10
2023-04-13T00:18:10.528Z,5.10
2023-04-13T00:20:37.886Z,5.10
2023-04-13T00:23:04.715Z,5.10
2023-04-13T00:25:31.494Z,5.00
2023-04-13T00:28:01.887Z,5.00
2023-04-13T00:30:28.849Z,5.00
2023-04-13T00:32:55.670Z,4.90
2023-04-13T00:35:26.434Z,4.90
2023-04-13T00:37:53.743Z,4.90
2023-04-13T00:40:20.697Z,4.80
2023-04-13T00:42:49.027Z,4.80
2023-04-13T00:45:18.031Z,4.80
2023-04-13T00:47:48.795Z,4.80
2023-04-13T00:50:19.070Z,4.80
2023-04-13T00:52:47.261Z,4.80
2023-04-13T00:55:14.977Z,4.70
2023-04-13T00:57:42.009Z,4.70
2023-04-13T01:00:09.875Z,4.70
2023-04-13T01:02:37.372Z,4.70
2023-04-13T01:05:06.848Z,4.60
2023-04-13T01:07:49.889Z,4.70
2023-04-13T01:10:42.734Z,4.70
2023-04-13T01:13:24.183Z,4.70
2023-04-13T01:16:01.381Z,4.70
2023-04-13T01:18:30.202Z,4.70
2023-04-13T01:20:57.877Z,4.70
2023-04-13T01:23:37.481Z,4.70
2023-04-13T01:26:08.618Z,4.70
2023-04-13T01:28:38.004Z,4.70
2023-04-13T01:31:11.557Z,5.10
2023-04-13T01:33:42.319Z,4.70
2023-04-13T01:36:10.568Z,4.70
2023-04-13T01:38:37.943Z,4.70
2023-04-13T01:41:05.053Z,4.70
2023-04-13T01:43:32.290Z,4.70
2023-04-13T01:46:01.672Z,4.70
2023-04-13T01:48:33.376Z,4.60
2023-04-13T01:51:19.453Z,4.60
2023-04-13T01:53:51.901Z,4.60
2023-04-13T01:56:19.561Z,4.60
2023-04-13T01:58:56.286Z,4.60
2023-04-13T02:01:24.045Z,4.60
2023-04-13T02:03:51.497Z,4.60
2023-04-13T02:06:18.677Z,4.60
2023-04-13T02:08:45.424Z,4.60
2023-04-13T02:11:12.908Z,4.60
2023-04-13T02:13:39.642Z,4.60
2023-04-13T02:16:07.380Z,4.60
2023-04-13T02:18:34.226Z,4.60
2023-04-13T02:21:08.014Z,4.50
2023-04-13T02:23:35.496Z,4.50
2023-04-13T02:56:30.872Z,4.40
2023-04-13T03:29:37.816Z,4.20
2023-04-13T03:32:04.776Z,4.20
2023-04-13T03:34:31.758Z,4.20
2023-04-13T03:36:58.561Z,4.20
2023-04-13T03:39:25.245Z,4.10
2023-04-13T03:41:52.018Z,4.10
2023-04-13T03:44:19.206Z,4.10
2023-04-13T03:46:46.035Z,4.10
2023-04-13T03:49:12.875Z,4.10
2023-04-13T03:51:39.617Z,4.10
2023-04-13T03:54:07.396Z,4.10
2023-04-13T03:56:34.152Z,4.10
2023-04-13T03:59:00.964Z,4.20
2023-04-13T04:01:30.698Z,4.20
2023-04-13T04:34:32.072Z,4.70
2023-04-13T04:37:03.173Z,4.70
2023-04-13T05:09:54.677Z,5.10
2023-04-13T05:42:17.083Z,5.20
2023-04-13T05:44:44.110Z,5.20
2023-04-13T06:09:27.195Z,5.50
2023-04-13T06:11:54.531Z,5.60
2023-04-13T06:14:22.182Z,5.70
2023-04-13T06:16:48.988Z,5.70
2023-04-13T06:23:01.389Z,5.90
2023-04-13T06:40:21.873Z,6.20
2023-04-13T06:42:48.748Z,6.10
2023-04-13T06:45:15.545Z,6.20
2023-04-13T06:47:42.882Z,6.30
2023-04-13T06:50:13.902Z,6.40
2023-04-13T06:52:43.866Z,6.50
2023-04-13T06:55:11.122Z,6.50
2023-04-13T06:57:37.906Z,6.60
2023-04-13T07:00:21.828Z,6.70
2023-04-13T07:02:55.703Z,6.70
2023-04-13T07:05:22.712Z,6.70
2023-04-13T07:07:49.548Z,6.70
2023-04-13T07:10:16.584Z,6.70
2023-04-13T07:12:43.448Z,6.80
2023-04-13T07:15:10.429Z,6.80
2023-04-13T07:17:37.307Z,6.90
2023-04-13T07:20:05.700Z,6.90
2023-04-13T07:22:33.578Z,6.90
2023-04-13T07:25:00.793Z,6.90
2023-04-13T07:27:28.136Z,6.80
2023-04-13T07:29:55.455Z,6.90
2023-04-13T07:32:24.472Z,7.00
2023-04-13T07:34:59.603Z,7.10
2023-04-13T07:37:26.599Z,7.30
2023-04-13T07:39:53.451Z,7.50
2023-04-13T07:42:20.354Z,7.60
2023-04-13T07:44:47.196Z,7.80
2023-04-13T07:47:14.252Z,8.20
2023-04-13T07:49:41.098Z,8.00
2023-04-13T07:52:07.952Z,8.10
2023-04-13T07:54:36.338Z,8.10
2023-04-13T07:57:03.931Z,8.20
2023-04-13T07:59:30.917Z,8.20
2023-04-13T08:01:58.026Z,8.30
2023-04-13T08:04:25.879Z,8.40
2023-04-13T08:06:54.002Z,8.40
2023-04-13T08:09:21.368Z,8.50
2023-04-13T08:11:49.556Z,8.60
2023-04-13T08:14:16.663Z,8.70
2023-04-13T08:16:43.483Z,8.70
2023-04-13T08:19:25.915Z,8.80
2023-04-13T08:21:52.803Z,8.90
2023-04-13T08:24:22.411Z,8.80
2023-04-13T08:26:49.393Z,8.60
2023-04-13T08:29:16.167Z,8.50
2023-04-13T08:31:42.970Z,8.60
2023-04-13T08:34:10.805Z,8.80
2023-04-13T08:36:38.452Z,9.00
2023-04-13T08:39:10.239Z,9.20
2023-04-13T08:41:43.447Z,9.40
2023-04-13T08:44:13.425Z,9.50
2023-04-13T08:46:43.788Z,9.70
2023-04-13T08:49:12.976Z,10.00
2023-04-13T08:51:43.430Z,10.30
2023-04-13T08:54:12.801Z,10.30
2023-04-13T08:56:46.584Z,10.50
2023-04-13T08:59:16.140Z,10.60
2023-04-13T09:01:46.546Z,10.70
2023-04-13T09:04:17.989Z,10.50
2023-04-13T09:06:50.936Z,10.40
2023-04-13T09:09:19.246Z,10.40
2023-04-13T09:11:47.875Z,10.10
2023-04-13T09:14:22.129Z,9.80
2023-04-13T09:16:49.937Z,9.50
2023-04-13T09:19:28.764Z,9.20
2023-04-13T09:21:56.198Z,9.00
2023-04-13T09:24:23.486Z,8.80
2023-04-13T09:26:50.925Z,8.80
2023-04-13T09:29:21.815Z,8.80
2023-04-13T09:31:48.971Z,8.70
2023-04-13T09:34:29.445Z,8.70
2023-04-13T09:36:59.544Z,8.60
2023-04-13T09:39:29.184Z,8.70
2023-04-13T09:41:57.939Z,8.80
2023-04-13T09:44:27.393Z,9.10
2023-04-13T09:47:01.789Z,9.20
2023-04-13T09:49:38.599Z,9.40
2023-04-13T09:52:23.532Z,9.70
2023-04-13T09:54:57.182Z,9.80
2023-04-13T09:57:29.560Z,9.90
2023-04-13T10:00:07.151Z,9.90
2023-04-13T10:02:34.359Z,9.90
2023-04-13T10:05:02.440Z,10.00
2023-04-13T10:07:30.719Z,10.20
2023-04-13T10:09:57.543Z,10.10
2023-04-13T10:12:26.777Z,9.90
2023-04-13T10:15:03.966Z,9.70
2023-04-13T10:18:26.010Z,9.50
2023-04-13T10:20:54.377Z,9.30
2023-04-13T10:23:21.838Z,8.90
2023-04-13T10:25:57.484Z,8.80
2023-04-13T10:28:26.254Z,8.60
2023-04-13T10:30:54.369Z,8.40
2023-04-13T10:33:21.426Z,8.20
2023-04-13T10:35:59.502Z,8.00
2023-04-13T10:38:27.521Z,8.00
2023-04-13T10:40:54.330Z,8.10
2023-04-13T10:43:32.351Z,8.20
2023-04-13T10:46:11.163Z,8.40
2023-04-13T10:48:38.461Z,8.40
2023-04-13T10:51:05.415Z,8.50
2023-04-13T10:53:33.367Z,8.40
2023-04-13T10:56:01.348Z,8.50
2023-04-13T10:58:33.131Z,8.50
2023-04-13T11:01:00.625Z,8.50
2023-04-13T11:04:04.394Z,8.50
2023-04-13T11:06:39.996Z,8.70
2023-04-13T11:09:07.880Z,8.80
2023-04-13T11:11:37.749Z,9.00
2023-04-13T11:14:04.650Z,9.30
2023-04-13T11:16:31.677Z,9.50
2023-04-13T11:19:03.490Z,9.60
2023-04-13T11:21:31.783Z,9.70
2023-04-13T11:24:02.447Z,9.90
2023-04-13T11:26:39.763Z,10.20
2023-04-13T11:29:16.967Z,10.40
2023-04-13T11:31:43.902Z,10.50
2023-04-13T11:34:13.911Z,10.40
2023-04-13T11:36:42.164Z,10.40
2023-04-13T11:39:10.634Z,10.50
2023-04-13T11:41:44.208Z,10.60
2023-04-13T11:44:14.607Z,10.80
2023-04-13T11:46:41.919Z,11.00
2023-04-13T11:49:08.977Z,11.00
2023-04-13T11:51:37.067Z,11.00
2023-04-13T11:54:04.558Z,10.80
2023-04-13T11:56:31.368Z,11.00
2023-04-13T12:01:29.096Z,10.90
2023-04-13T12:04:14.665Z,10.70
2023-04-13T12:06:47.388Z,10.50
2023-04-13T12:09:17.318Z,10.30
2023-04-13T12:11:50.055Z,10.10
2023-04-13T12:19:26.746Z,9.80
2023-04-13T12:21:56.687Z,9.60
2023-04-13T12:24:39.891Z,9.50
2023-04-13T12:29:40.961Z,9.30
2023-04-13T12:32:16.916Z,9.20
2023-04-13T12:34:44.779Z,9.10
2023-04-13T12:37:12.140Z,9.10
2023-04-13T12:39:39.103Z,9.00
2023-04-13T12:42:06.232Z,9.20
2023-04-13T12:44:34.394Z,9.60
2023-04-13T12:47:02.470Z,10.10
2023-04-13T12:49:29.930Z,10.60
2023-04-13T12:51:56.879Z,10.90
2023-04-13T12:54:23.686Z,10.80
2023-04-13T12:56:50.460Z,10.50
2023-04-13T12:59:17.743Z,10.10
2023-04-13T13:01:44.722Z,9.80
2023-04-13T13:04:11.988Z,9.50
2023-04-13T13:06:38.762Z,10.10
2023-04-13T13:09:31.948Z,9.40
2023-04-13T13:11:58.860Z,9.50
2023-04-13T13:14:25.822Z,9.50
2023-04-13T13:16:53.110Z,9.40
2023-04-13T13:19:20.045Z,9.60
2023-04-13T13:21:46.860Z,9.80
2023-04-13T13:24:13.684Z,10.00
2023-04-13T13:29:13.127Z,10.20
2023-04-13T13:31:41.336Z,10.20
2023-04-13T13:34:08.149Z,10.30
2023-04-13T13:36:34.902Z,10.30
2023-04-13T13:39:01.816Z,10.20
2023-04-13T13:41:28.720Z,10.10
2023-04-13T13:43:55.658Z,10.00
2023-04-13T13:46:22.515Z,10.00
2023-04-13T13:48:49.323Z,10.00
2023-04-13T13:51:16.261Z,10.00
2023-04-13T13:53:43.054Z,10.10
2023-04-13T13:56:09.847Z,10.10
2023-04-13T13:58:36.637Z,9.90
2023-04-13T14:01:04.801Z,9.50
2023-04-13T14:03:32.613Z,10.00
2023-04-13T14:05:59.802Z,8.30
2023-04-13T14:08:26.609Z,7.70
2023-04-13T14:10:53.469Z,7.10
2023-04-13T14:13:20.595Z,6.70
2023-04-13T14:15:47.572Z,6.40
2023-04-13T14:18:14.895Z,6.30
2023-04-13T14:20:43.257Z,6.20
2023-04-13T14:23:10.339Z,6.30
2023-04-13T14:25:38.672Z,6.30
2023-04-13T14:28:06.717Z,6.40
2023-04-13T14:30:33.715Z,6.50
2023-04-13T14:33:01.299Z,6.60
2023-04-13T14:35:28.204Z,6.80
2023-04-13T14:37:55.024Z,6.90
2023-04-13T14:40:23.336Z,7.00
2023-04-13T14:42:53.960Z,7.10
2023-04-13T14:46:05.327Z,7.20
2023-04-13T14:48:33.417Z,7.40
2023-04-13T14:51:00.288Z,7.50
2023-04-13T14:53:27.166Z,7.60
2023-04-13T14:55:54.018Z,7.60
2023-04-13T14:58:21.510Z,7.70
2023-04-13T15:00:48.345Z,7.70
2023-04-13T15:03:15.836Z,7.70
2023-04-13T15:05:46.212Z,7.70
2023-04-13T15:08:15.708Z,8.30
2023-04-13T15:10:42.863Z,7.90
2023-04-13T15:13:09.782Z,8.80
2023-04-13T15:16:28.030Z,8.30
2023-04-13T15:18:54.848Z,8.40
2023-04-13T15:21:21.770Z,8.50
2023-04-13T15:23:48.522Z,8.60
2023-04-13T15:26:19.755Z,8.70
2023-04-13T15:28:46.761Z,8.80
2023-04-13T15:31:13.627Z,8.80
2023-04-13T15:33:40.425Z,8.80
2023-04-13T15:36:08.554Z,8.80
2023-04-13T15:38:35.390Z,8.80
2023-04-13T15:41:02.171Z,8.80
2023-04-13T15:43:28.997Z,8.80
2023-04-13T15:45:56.421Z,8.80
2023-04-13T15:48:23.377Z,8.80
2023-04-13T15:50:58.486Z,8.80
2023-04-13T15:53:26.859Z,8.80
2023-04-13T15:55:53.943Z,8.70
2023-04-13T15:58:21.562Z,8.60
2023-04-13T16:01:00.513Z,8.60
2023-04-13T16:03:27.567Z,8.50
2023-04-13T16:05:54.443Z,8.50
2023-04-13T16:08:21.679Z,8.50
2023-04-13T16:10:48.816Z,8.50
2023-04-13T16:13:19.249Z,8.50
2023-04-13T16:15:55.583Z,8.50
2023-04-13T16:18:32.245Z,8.60
2023-04-13T16:21:02.226Z,8.60
2023-04-13T16:23:30.600Z,8.70
2023-04-13T16:25:57.450Z,8.70
2023-04-13T16:28:24.322Z,8.70
2023-04-13T16:30:51.208Z,8.60
2023-04-13T16:33:18.006Z,8.60
2023-04-13T16:35:44.770Z,8.50
2023-04-13T16:38:11.994Z,8.40
2023-04-13T16:40:38.790Z,8.30
2023-04-13T16:43:05.813Z,8.20
2023-04-13T16:45:33.229Z,8.10
2023-04-13T16:48:00.057Z,8.00
2023-04-13T16:50:31.950Z,7.50
2023-04-13T16:52:59.529Z,6.80
2023-04-13T16:55:28.502Z,6.20
2023-04-13T16:57:56.055Z,5.70
2023-04-13T17:00:23.535Z,5.40
2023-04-13T17:02:52.999Z,5.20
2023-04-13T17:05:20.089Z,5.00
2023-04-13T17:07:48.080Z,5.00
2023-04-13T17:10:15.131Z,5.10
2023-04-13T17:12:42.250Z,5.20
2023-04-13T17:15:10.306Z,5.30
2023-04-13T17:17:38.234Z,5.40
2023-04-13T17:20:06.932Z,5.50
2023-04-13T17:22:33.757Z,5.60
2023-04-13T17:25:00.965Z,5.70
2023-04-13T17:27:27.861Z,5.80
2023-04-13T17:29:54.926Z,6.80
2023-04-13T17:32:22.294Z,5.90
2023-04-13T17:34:50.180Z,6.00
2023-04-13T17:37:17.984Z,6.00
2023-04-13T17:39:49.515Z,6.00
2023-04-13T17:42:17.307Z,6.00
2023-04-13T17:44:44.476Z,6.10
2023-04-13T17:47:11.336Z,6.10
2023-04-13T17:49:38.656Z,6.10
2023-04-13T17:52:05.442Z,6.10
2023-04-13T17:54:33.014Z,6.00
2023-04-13T17:57:01.676Z,6.00
2023-04-13T17:59:28.585Z,6.00
2023-04-13T18:01:56.070Z,5.90
2023-04-13T18:04:23.124Z,5.90
2023-04-13T18:06:50.051Z,5.80
2023-04-13T18:09:17.015Z,5.80
2023-04-13T18:11:44.339Z,5.80
2023-04-13T18:14:15.990Z,5.70
2023-04-13T18:16:42.973Z,5.60
2023-04-13T18:19:09.846Z,5.60
2023-04-13T18:21:37.210Z,5.50
2023-04-13T18:24:04.381Z,5.40
2023-04-13T18:26:31.364Z,5.30
2023-04-13T18:28:58.166Z,5.30
2023-04-13T18:31:25.349Z,5.30
2023-04-13T18:33:54.533Z,5.20
2023-04-13T18:36:21.447Z,5.20
2023-04-13T18:38:48.248Z,5.20
2023-04-13T18:41:15.143Z,5.20
2023-04-13T18:43:41.944Z,5.10
2023-04-13T18:46:09.088Z,5.10
2023-04-13T18:48:36.113Z,5.10
2023-04-13T18:51:03.562Z,5.10
2023-04-13T18:53:31.004Z,6.10
2023-04-13T18:55:58.852Z,5.10
2023-04-13T18:58:26.461Z,5.20
2023-04-13T19:00:53.363Z,5.20
2023-04-13T19:03:20.337Z,5.20
2023-04-13T19:05:58.186Z,5.30
2023-04-13T19:08:24.996Z,5.40
2023-04-13T19:10:51.761Z,5.40
2023-04-13T19:13:18.892Z,5.50
2023-04-13T19:15:45.700Z,5.50
2023-04-13T19:18:12.506Z,5.60
2023-04-13T19:20:39.390Z,5.60
2023-04-13T19:23:06.722Z,5.60
2023-04-13T19:25:33.536Z,5.70
2023-04-13T19:28:00.653Z,5.70
2023-04-13T19:30:27.774Z,5.70
2023-04-13T19:32:54.883Z,5.60
2023-04-13T19:35:24.314Z,5.60
2023-04-13T19:37:51.190Z,5.60
2023-04-13T19:41:08.975Z,5.50
2023-04-13T19:43:35.832Z,5.50
2023-04-13T19:46:02.678Z,5.40
2023-04-13T19:48:29.503Z,5.40
2023-04-13T19:50:56.364Z,5.40
2023-04-13T19:53:23.170Z,5.40
2023-04-13T19:55:51.226Z,5.30
2023-04-13T19:58:18.433Z,5.30
2023-04-13T20:00:47.309Z,5.20
2023-04-13T20:03:14.359Z,5.20
2023-04-13T20:05:41.989Z,5.20
2023-04-13T20:08:09.250Z,5.20
2023-04-13T20:11:13.568Z,5.20
2023-04-13T20:13:41.478Z,5.10
2023-04-13T20:16:10.049Z,5.10
2023-04-13T20:18:36.995Z,5.20
2023-04-13T20:21:04.282Z,5.20
2023-04-13T20:23:31.434Z,5.20
2023-04-13T20:25:58.344Z,5.20
2023-04-13T20:28:25.293Z,5.20
2023-04-13T20:30:52.493Z,5.20
2023-04-13T20:33:19.465Z,5.10
2023-04-13T20:35:46.325Z,5.10
2023-04-13T20:38:13.870Z,5.10
2023-04-13T20:40:41.712Z,5.10
2023-04-13T20:43:09.642Z,5.10
2023-04-13T20:45:36.660Z,5.00
2023-04-13T20:50:35.646Z,4.90
2023-04-13T20:53:03.540Z,4.80
2023-04-13T20:55:30.756Z,4.80
2023-04-13T20:57:57.602Z,4.80
2023-04-13T21:00:25.010Z,4.80
2023-04-13T21:02:53.105Z,4.80
2023-04-13T21:05:22.166Z,4.80
2023-04-13T21:07:50.078Z,4.80
2023-04-13T21:10:17.706Z,4.80
2023-04-13T21:12:44.599Z,4.80
2023-04-13T21:15:11.847Z,4.80
2023-04-13T21:17:38.927Z,4.80
2023-04-13T21:20:08.841Z,4.80
2023-04-13T21:22:36.813Z,4.80
2023-04-13T21:25:05.340Z,4.90
2023-04-13T21:27:32.549Z,4.90
2023-04-13T21:30:01.147Z,4.90
2023-04-13T21:32:28.056Z,5.40
2023-04-13T21:34:55.750Z,4.90
2023-04-13T21:37:22.508Z,4.90
2023-04-13T21:39:49.300Z,4.90
2023-04-13T21:42:16.920Z,4.90
2023-04-13T21:44:43.712Z,4.90
2023-04-13T21:47:10.543Z,4.90
2023-04-13T21:49:37.420Z,4.90
2023-04-13T21:52:04.667Z,4.80
2023-04-13T21:54:31.422Z,4.80
2023-04-13T21:56:58.270Z,4.80
2023-04-13T21:59:27.232Z,4.70
2023-04-13T22:01:57.124Z,4.70
2023-04-13T22:04:24.325Z,4.70
2023-04-13T22:06:51.254Z,4.70
2023-04-13T22:09:18.095Z,4.60
2023-04-13T22:11:44.983Z,4.60
2023-04-13T22:14:11.761Z,4.60
2023-04-13T22:16:38.554Z,4.60
2023-04-13T22:19:05.555Z,4.60
2023-04-13T22:21:35.986Z,4.60
2023-04-13T22:24:03.039Z,4.60
2023-04-13T22:26:30.549Z,4.60
2023-04-13T22:28:57.466Z,4.60
2023-04-13T22:31:24.466Z,4.60
2023-04-13T22:33:51.324Z,4.60
2023-04-13T22:36:20.626Z,6.00
2023-04-13T22:38:48.310Z,4.50
2023-04-13T22:41:16.093Z,4.50
2023-04-13T22:43:42.972Z,4.60
2023-04-13T22:46:09.862Z,4.50
2023-04-13T22:48:36.716Z,4.50
2023-04-13T22:51:03.827Z,4.50
2023-04-13T22:53:31.103Z,4.60
2023-04-13T22:55:59.386Z,4.60
2023-04-13T22:58:26.446Z,4.70
2023-04-13T23:00:53.348Z,4.70
2023-04-13T23:03:21.243Z,4.80
2023-04-13T23:05:48.293Z,4.90
2023-04-13T23:08:15.323Z,4.90
2023-04-13T23:10:42.207Z,4.90
2023-04-13T23:13:08.962Z,5.00
2023-04-13T23:15:35.842Z,5.00
2023-04-13T23:18:02.781Z,5.00
2023-04-13T23:20:30.139Z,5.00
2023-04-13T23:22:57.180Z,5.00
2023-04-13T23:25:24.276Z,5.00
2023-04-13T23:27:51.189Z,5.00
2023-04-13T23:30:18.200Z,5.00
2023-04-13T23:32:45.098Z,5.10
2023-04-13T23:35:11.961Z,5.10
2023-04-13T23:37:40.648Z,5.10
2023-04-13T23:40:09.083Z,5.10
2023-04-13T23:42:35.965Z,5.20
2023-04-13T23:45:02.856Z,5.20
2023-04-13T23:47:29.936Z,5.20
2023-04-13T23:49:56.941Z,5.20
2023-04-13T23:52:23.745Z,5.20
2023-04-13T23:54:50.563Z,5.30
2023-04-13T23:57:17.365Z,5.30
2023-04-13T23:59:44.154Z,5.30
